Terminal Aerodrome Forecast
Issued by NWS La Crosse, WI

Home | Current Version | Previous Version | Text Only | Print | Product List | Glossary On
Versions: 1 2 3 4 5 6 7 8 9 10 11 12 13 14 15 16 17 18 19 20 21 22 23 24 25 26 27 28 29 30 31 32 33 34 35 36 37 38 39 40 41 42 43 44 45 46 47 48 49 50
000
FTUS43 KARX 241130
TAFLSE
TAF
KLSE 241130Z 2412/2512 31014KT P6SM -RASN OVC012
     FM241300 32015G20KT 4SM -SN OVC012
      TEMPO 2413/2415 1SM -SN OVC008
     FM241500 31018G26KT 2SM -SN OVC008
     FM242300 30016G24KT 5SM -SN OVC015
     FM250800 31010KT P6SM -SN OVC015=

USA.gov is the U.S. government's official web portal to all federal, state and local government web resources and services.